sensor_id;sensor_type;location;lat;lon;timestamp;temperature;humidity
22224;DHT22;11281;52.194;21.006;2022-07-12T00:03:56;11.80;99.90
22224;DHT22;11281;52.194;21.006;2022-07-12T00:07:58;11.80;99.90
22224;DHT22;11281;52.194;21.006;2022-07-12T00:11:59;11.80;99.90
22224;DHT22;11281;52.194;21.006;2022-07-12T00:16:01;11.80;99.90
22224;DHT22;11281;52.194;21.006;2022-07-12T00:20:02;11.70;99.90
22224;DHT22;11281;52.194;21.006;2022-07-12T00:24:05;11.70;99.90
22224;DHT22;11281;52.194;21.006;2022-07-12T00:28:07;11.80;99.90
22224;DHT22;11281;52.194;21.006;2022-07-12T00:32:09;11.70;99.90
22224;DHT22;11281;52.194;21.006;2022-07-12T00:36:11;11.70;99.90
22224;DHT22;11281;52.194;21.006;2022-07-12T00:40:13;11.70;99.90
22224;DHT22;11281;52.194;21.006;2022-07-12T00:44:15;11.70;99.90
22224;DHT22;11281;52.194;21.006;2022-07-12T00:48:17;11.70;99.90
22224;DHT22;11281;52.194;21.006;2022-07-12T00:52:19;11.70;99.90
22224;DHT22;11281;52.194;21.006;2022-07-12T00:56:21;11.80;99.90
22224;DHT22;11281;52.194;21.006;2022-07-12T01:00:25;11.70;99.90
22224;DHT22;11281;52.194;21.006;2022-07-12T01:04:28;11.70;99.90
22224;DHT22;11281;52.194;21.006;2022-07-12T01:08:31;11.70;99.90
22224;DHT22;11281;52.194;21.006;2022-07-12T01:12:36;11.70;99.90
22224;DHT22;11281;52.194;21.006;2022-07-12T01:16:38;11.60;99.90
22224;DHT22;11281;52.194;21.006;2022-07-12T01:20:39;11.70;99.90
22224;DHT22;11281;52.194;21.006;2022-07-12T01:24:41;11.60;99.90
22224;DHT22;11281;52.194;21.006;2022-07-12T01:28:43;11.60;99.90
22224;DHT22;11281;52.194;21.006;2022-07-12T01:32:44;11.60;99.90
22224;DHT22;11281;52.194;21.006;2022-07-12T01:36:46;11.60;99.90
22224;DHT22;11281;52.194;21.006;2022-07-12T01:40:49;11.70;99.90
22224;DHT22;11281;52.194;21.006;2022-07-12T01:44:52;11.80;99.90
22224;DHT22;11281;52.194;21.006;2022-07-12T01:48:54;11.90;99.90
22224;DHT22;11281;52.194;21.006;2022-07-12T01:52:55;12.00;99.90
22224;DHT22;11281;52.194;21.006;2022-07-12T01:56:57;12.10;99.90
22224;DHT22;11281;52.194;21.006;2022-07-12T02:00:59;12.20;99.90
22224;DHT22;11281;52.194;21.006;2022-07-12T02:05:01;12.30;99.90
22224;DHT22;11281;52.194;21.006;2022-07-12T02:09:04;12.40;99.90
22224;DHT22;11281;52.194;21.006;2022-07-12T02:13:06;12.40;99.90
22224;DHT22;11281;52.194;21.006;2022-07-12T02:17:08;12.40;99.90
22224;DHT22;11281;52.194;21.006;2022-07-12T02:21:09;12.50;99.90
22224;DHT22;11281;52.194;21.006;2022-07-12T02:25:11;12.50;99.90
22224;DHT22;11281;52.194;21.006;2022-07-12T02:29:13;12.50;99.90
22224;DHT22;11281;52.194;21.006;2022-07-12T02:33:14;12.60;99.90
22224;DHT22;11281;52.194;21.006;2022-07-12T02:37:16;12.60;99.90
22224;DHT22;11281;52.194;21.006;2022-07-12T02:41:18;12.50;99.90
22224;DHT22;11281;52.194;21.006;2022-07-12T02:45:20;12.40;99.90
22224;DHT22;11281;52.194;21.006;2022-07-12T02:49:22;12.30;99.90
22224;DHT22;11281;52.194;21.006;2022-07-12T02:53:23;12.40;99.90
22224;DHT22;11281;52.194;21.006;2022-07-12T02:57:25;12.50;99.90
22224;DHT22;11281;52.194;21.006;2022-07-12T03:01:27;12.50;99.90
22224;DHT22;11281;52.194;21.006;2022-07-12T03:05:29;12.60;99.90
22224;DHT22;11281;52.194;21.006;2022-07-12T03:09:31;12.60;99.90
22224;DHT22;11281;52.194;21.006;2022-07-12T03:13:32;12.60;99.90
22224;DHT22;11281;52.194;21.006;2022-07-12T03:17:34;12.70;99.90
22224;DHT22;11281;52.194;21.006;2022-07-12T03:21:36;12.70;99.90
22224;DHT22;11281;52.194;21.006;2022-07-12T03:25:37;12.60;99.90
22224;DHT22;11281;52.194;21.006;2022-07-12T03:29:39;12.60;99.90
22224;DHT22;11281;52.194;21.006;2022-07-12T03:33:40;12.60;99.90
22224;DHT22;11281;52.194;21.006;2022-07-12T03:37:44;12.60;99.90
22224;DHT22;11281;52.194;21.006;2022-07-12T03:41:47;12.70;99.90
22224;DHT22;11281;52.194;21.006;2022-07-12T03:45:49;12.70;99.90
22224;DHT22;11281;52.194;21.006;2022-07-12T03:49:50;12.60;99.90
22224;DHT22;11281;52.194;21.006;2022-07-12T03:53:52;12.50;99.90
22224;DHT22;11281;52.194;21.006;2022-07-12T03:57:54;12.50;99.90
22224;DHT22;11281;52.194;21.006;2022-07-12T04:01:55;12.60;99.90
22224;DHT22;11281;52.194;21.006;2022-07-12T04:06:00;12.80;99.90
22224;DHT22;11281;52.194;21.006;2022-07-12T04:10:03;12.90;99.90
22224;DHT22;11281;52.194;21.006;2022-07-12T04:14:05;13.00;99.90
22224;DHT22;11281;52.194;21.006;2022-07-12T04:18:07;13.10;99.90
22224;DHT22;11281;52.194;21.006;2022-07-12T04:22:08;13.20;99.90
22224;DHT22;11281;52.194;21.006;2022-07-12T04:26:10;13.30;99.90
22224;DHT22;11281;52.194;21.006;2022-07-12T04:30:12;13.50;99.90
22224;DHT22;11281;52.194;21.006;2022-07-12T04:34:13;13.70;99.90
22224;DHT22;11281;52.194;21.006;2022-07-12T04:38:18;13.70;99.90
22224;DHT22;11281;52.194;21.006;2022-07-12T04:42:20;13.80;99.90
22224;DHT22;11281;52.194;21.006;2022-07-12T04:46:21;13.80;99.90
22224;DHT22;11281;52.194;21.006;2022-07-12T04:50:23;13.90;99.90
22224;DHT22;11281;52.194;21.006;2022-07-12T04:54:24;14.00;99.90
22224;DHT22;11281;52.194;21.006;2022-07-12T04:58:26;14.10;99.90
22224;DHT22;11281;52.194;21.006;2022-07-12T05:02:27;14.40;99.90
22224;DHT22;11281;52.194;21.006;2022-07-12T05:06:29;14.70;99.90
22224;DHT22;11281;52.194;21.006;2022-07-12T05:10:30;14.70;99.90
22224;DHT22;11281;52.194;21.006;2022-07-12T05:14:32;14.60;99.90
22224;DHT22;11281;52.194;21.006;2022-07-12T05:18:34;14.60;99.90
22224;DHT22;11281;52.194;21.006;2022-07-12T05:22:36;14.50;99.90
22224;DHT22;11281;52.194;21.006;2022-07-12T05:26:38;14.70;99.90
22224;DHT22;11281;52.194;21.006;2022-07-12T05:30:39;14.70;99.90
22224;DHT22;11281;52.194;21.006;2022-07-12T05:34:41;14.90;99.90
22224;DHT22;11281;52.194;21.006;2022-07-12T05:38:42;15.00;99.90
22224;DHT22;11281;52.194;21.006;2022-07-12T05:42:45;15.10;99.90
22224;DHT22;11281;52.194;21.006;2022-07-12T05:46:46;14.80;99.90
22224;DHT22;11281;52.194;21.006;2022-07-12T05:50:48;14.70;99.90
22224;DHT22;11281;52.194;21.006;2022-07-12T05:54:50;14.60;99.90
22224;DHT22;11281;52.194;21.006;2022-07-12T05:58:51;14.80;99.90
22224;DHT22;11281;52.194;21.006;2022-07-12T06:02:54;14.90;99.90
22224;DHT22;11281;52.194;21.006;2022-07-12T06:06:56;15.30;99.90
22224;DHT22;11281;52.194;21.006;2022-07-12T06:10:57;15.30;99.90
22224;DHT22;11281;52.194;21.006;2022-07-12T06:15:00;15.40;99.90
22224;DHT22;11281;52.194;21.006;2022-07-12T06:19:01;16.50;99.90
22224;DHT22;11281;52.194;21.006;2022-07-12T06:23:03;16.90;99.90
22224;DHT22;11281;52.194;21.006;2022-07-12T06:27:05;16.50;99.90
22224;DHT22;11281;52.194;21.006;2022-07-12T06:31:06;16.30;99.90
22224;DHT22;11281;52.194;21.006;2022-07-12T06:35:08;16.70;99.90
22224;DHT22;11281;52.194;21.006;2022-07-12T06:39:10;16.60;99.90
22224;DHT22;11281;52.194;21.006;2022-07-12T06:43:11;16.40;99.90
22224;DHT22;11281;52.194;21.006;2022-07-12T06:47:14;16.60;99.90
22224;DHT22;11281;52.194;21.006;2022-07-12T06:51:15;16.80;99.90
22224;DHT22;11281;52.194;21.006;2022-07-12T06:55:17;16.50;99.90
22224;DHT22;11281;52.194;21.006;2022-07-12T06:59:19;16.40;99.90
22224;DHT22;11281;52.194;21.006;2022-07-12T07:03:21;16.60;99.90
22224;DHT22;11281;52.194;21.006;2022-07-12T07:07:22;16.80;99.90
22224;DHT22;11281;52.194;21.006;2022-07-12T07:11:24;16.60;99.90
22224;DHT22;11281;52.194;21.006;2022-07-12T07:15:27;16.90;99.90
22224;DHT22;11281;52.194;21.006;2022-07-12T07:19:28;17.20;99.90
22224;DHT22;11281;52.194;21.006;2022-07-12T07:23:30;17.10;99.90
22224;DHT22;11281;52.194;21.006;2022-07-12T07:27:32;17.00;99.90
22224;DHT22;11281;52.194;21.006;2022-07-12T07:31:34;17.10;99.90
22224;DHT22;11281;52.194;21.006;2022-07-12T07:35:37;17.20;99.90
22224;DHT22;11281;52.194;21.006;2022-07-12T07:39:39;17.40;99.90
22224;DHT22;11281;52.194;21.006;2022-07-12T07:43:42;17.60;99.90
22224;DHT22;11281;52.194;21.006;2022-07-12T07:47:48;18.00;99.90
22224;DHT22;11281;52.194;21.006;2022-07-12T07:51:50;17.60;99.90
22224;DHT22;11281;52.194;21.006;2022-07-12T07:55:53;17.40;99.90
22224;DHT22;11281;52.194;21.006;2022-07-12T07:59:54;17.90;99.90
22224;DHT22;11281;52.194;21.006;2022-07-12T08:03:56;17.70;99.90
22224;DHT22;11281;52.194;21.006;2022-07-12T08:07:58;17.80;99.90
22224;DHT22;11281;52.194;21.006;2022-07-12T08:11:59;18.10;99.90
22224;DHT22;11281;52.194;21.006;2022-07-12T08:16:01;18.10;99.90
22224;DHT22;11281;52.194;21.006;2022-07-12T08:20:04;18.00;99.90
22224;DHT22;11281;52.194;21.006;2022-07-12T08:24:06;17.70;99.90
22224;DHT22;11281;52.194;21.006;2022-07-12T08:28:08;18.10;99.90
22224;DHT22;11281;52.194;21.006;2022-07-12T08:32:09;17.90;99.90
22224;DHT22;11281;52.194;21.006;2022-07-12T08:36:12;18.50;99.90
22224;DHT22;11281;52.194;21.006;2022-07-12T08:40:13;18.40;99.90
22224;DHT22;11281;52.194;21.006;2022-07-12T08:44:15;18.30;99.90
22224;DHT22;11281;52.194;21.006;2022-07-12T08:48:17;18.40;99.90
22224;DHT22;11281;52.194;21.006;2022-07-12T08:52:27;18.60;99.90
22224;DHT22;11281;52.194;21.006;2022-07-12T08:56:34;18.90;99.90
22224;DHT22;11281;52.194;21.006;2022-07-12T09:00:39;19.30;99.90
22224;DHT22;11281;52.194;21.006;2022-07-12T09:04:41;19.30;99.90
22224;DHT22;11281;52.194;21.006;2022-07-12T09:08:42;19.10;99.90
22224;DHT22;11281;52.194;21.006;2022-07-12T09:12:44;19.10;99.90
22224;DHT22;11281;52.194;21.006;2022-07-12T09:17:06;19.10;99.90
22224;DHT22;11281;52.194;21.006;2022-07-12T09:21:28;19.10;99.90
22224;DHT22;11281;52.194;21.006;2022-07-12T09:25:31;19.10;99.90
22224;DHT22;11281;52.194;21.006;2022-07-12T09:29:49;19.10;99.90
22224;DHT22;11281;52.194;21.006;2022-07-12T09:34:01;19.10;99.90
22224;DHT22;11281;52.194;21.006;2022-07-12T09:38:22;19.30;99.90
22224;DHT22;11281;52.194;21.006;2022-07-12T09:42:25;19.50;99.90
22224;DHT22;11281;52.194;21.006;2022-07-12T09:46:27;19.40;99.90
22224;DHT22;11281;52.194;21.006;2022-07-12T09:50:30;19.70;99.90
22224;DHT22;11281;52.194;21.006;2022-07-12T09:54:37;19.60;99.90
22224;DHT22;11281;52.194;21.006;2022-07-12T10:02:52;19.50;99.90
22224;DHT22;11281;52.194;21.006;2022-07-12T10:06:57;19.30;99.90
22224;DHT22;11281;52.194;21.006;2022-07-12T10:10:59;19.40;99.90
22224;DHT22;11281;52.194;21.006;2022-07-12T10:15:04;19.20;99.90
22224;DHT22;11281;52.194;21.006;2022-07-12T10:19:28;19.00;99.90
22224;DHT22;11281;52.194;21.006;2022-07-12T10:23:35;18.80;99.90
22224;DHT22;11281;52.194;21.006;2022-07-12T10:27:37;18.90;99.90
22224;DHT22;11281;52.194;21.006;2022-07-12T10:31:39;19.10;99.90
22224;DHT22;11281;52.194;21.006;2022-07-12T10:36:04;19.10;99.90
22224;DHT22;11281;52.194;21.006;2022-07-12T10:40:18;18.90;99.90
22224;DHT22;11281;52.194;21.006;2022-07-12T10:44:37;19.30;99.90
22224;DHT22;11281;52.194;21.006;2022-07-12T10:48:39;19.50;99.90
22224;DHT22;11281;52.194;21.006;2022-07-12T10:52:43;19.70;99.90
22224;DHT22;11281;52.194;21.006;2022-07-12T10:57:04;19.80;99.90
22224;DHT22;11281;52.194;21.006;2022-07-12T11:01:20;19.60;99.90
22224;DHT22;11281;52.194;21.006;2022-07-12T11:05:26;19.50;99.90
22224;DHT22;11281;52.194;21.006;2022-07-12T11:09:28;19.10;99.90
22224;DHT22;11281;52.194;21.006;2022-07-12T11:13:30;19.20;99.90
22224;DHT22;11281;52.194;21.006;2022-07-12T11:17:32;19.70;99.90
22224;DHT22;11281;52.194;21.006;2022-07-12T11:21:35;20.00;99.90
22224;DHT22;11281;52.194;21.006;2022-07-12T11:25:37;20.00;99.90
22224;DHT22;11281;52.194;21.006;2022-07-12T11:29:39;19.50;99.90
22224;DHT22;11281;52.194;21.006;2022-07-12T11:33:43;19.20;99.90
22224;DHT22;11281;52.194;21.006;2022-07-12T11:37:56;19.30;99.90
22224;DHT22;11281;52.194;21.006;2022-07-12T11:41:59;19.60;99.90
22224;DHT22;11281;52.194;21.006;2022-07-12T11:46:04;19.70;99.90
22224;DHT22;11281;52.194;21.006;2022-07-12T11:50:09;19.80;99.90
22224;DHT22;11281;52.194;21.006;2022-07-12T11:54:10;20.00;99.90
22224;DHT22;11281;52.194;21.006;2022-07-12T11:58:16;20.10;99.90
22224;DHT22;11281;52.194;21.006;2022-07-12T12:02:19;19.90;99.90
22224;DHT22;11281;52.194;21.006;2022-07-12T12:06:20;20.00;99.90
22224;DHT22;11281;52.194;21.006;2022-07-12T12:10:22;19.80;99.90
22224;DHT22;11281;52.194;21.006;2022-07-12T12:14:23;19.80;99.90
22224;DHT22;11281;52.194;21.006;2022-07-12T12:18:33;19.70;99.90
22224;DHT22;11281;52.194;21.006;2022-07-12T12:22:37;19.70;99.90
22224;DHT22;11281;52.194;21.006;2022-07-12T12:26:39;19.70;99.90
22224;DHT22;11281;52.194;21.006;2022-07-12T12:30:55;19.60;99.90
22224;DHT22;11281;52.194;21.006;2022-07-12T12:35:11;19.50;99.90
22224;DHT22;11281;52.194;21.006;2022-07-12T12:39:28;19.50;99.90
22224;DHT22;11281;52.194;21.006;2022-07-12T12:43:30;19.40;99.90
22224;DHT22;11281;52.194;21.006;2022-07-12T12:47:55;19.40;99.90
22224;DHT22;11281;52.194;21.006;2022-07-12T12:52:00;19.40;99.90
22224;DHT22;11281;52.194;21.006;2022-07-12T12:56:04;19.50;99.90
22224;DHT22;11281;52.194;21.006;2022-07-12T13:00:13;19.60;99.90
22224;DHT22;11281;52.194;21.006;2022-07-12T13:04:15;19.70;99.90
22224;DHT22;11281;52.194;21.006;2022-07-12T13:08:17;19.80;99.90
22224;DHT22;11281;52.194;21.006;2022-07-12T13:12:19;19.70;99.90
22224;DHT22;11281;52.194;21.006;2022-07-12T13:16:21;19.70;99.90
22224;DHT22;11281;52.194;21.006;2022-07-12T13:20:23;19.70;99.90
22224;DHT22;11281;52.194;21.006;2022-07-12T13:24:27;19.50;99.90
22224;DHT22;11281;52.194;21.006;2022-07-12T13:28:33;19.50;99.90
22224;DHT22;11281;52.194;21.006;2022-07-12T13:32:35;19.50;99.90
22224;DHT22;11281;52.194;21.006;2022-07-12T13:36:37;19.50;99.90
22224;DHT22;11281;52.194;21.006;2022-07-12T13:40:38;19.50;99.90
22224;DHT22;11281;52.194;21.006;2022-07-12T13:44:41;19.50;99.90
22224;DHT22;11281;52.194;21.006;2022-07-12T13:48:43;19.40;99.90
22224;DHT22;11281;52.194;21.006;2022-07-12T13:52:47;19.40;99.90
22224;DHT22;11281;52.194;21.006;2022-07-12T13:56:49;19.40;99.90
22224;DHT22;11281;52.194;21.006;2022-07-12T14:00:50;19.40;99.90
22224;DHT22;11281;52.194;21.006;2022-07-12T14:04:53;19.40;99.90
22224;DHT22;11281;52.194;21.006;2022-07-12T14:08:54;19.50;99.90
22224;DHT22;11281;52.194;21.006;2022-07-12T14:12:56;19.50;99.90
22224;DHT22;11281;52.194;21.006;2022-07-12T14:16:57;19.60;99.90
22224;DHT22;11281;52.194;21.006;2022-07-12T14:20:59;19.60;99.90
22224;DHT22;11281;52.194;21.006;2022-07-12T14:25:00;19.60;99.90
22224;DHT22;11281;52.194;21.006;2022-07-12T14:29:05;19.40;99.90
22224;DHT22;11281;52.194;21.006;2022-07-12T14:33:06;19.30;99.90
22224;DHT22;11281;52.194;21.006;2022-07-12T14:37:08;19.30;99.90
22224;DHT22;11281;52.194;21.006;2022-07-12T14:41:09;19.20;99.90
22224;DHT22;11281;52.194;21.006;2022-07-12T14:45:12;19.00;99.90
22224;DHT22;11281;52.194;21.006;2022-07-12T14:49:13;18.80;99.90
22224;DHT22;11281;52.194;21.006;2022-07-12T14:53:15;18.80;99.90
22224;DHT22;11281;52.194;21.006;2022-07-12T14:57:18;18.70;99.90
22224;DHT22;11281;52.194;21.006;2022-07-12T15:01:20;18.80;99.90
22224;DHT22;11281;52.194;21.006;2022-07-12T15:05:21;18.90;99.90
22224;DHT22;11281;52.194;21.006;2022-07-12T15:09:23;18.80;99.90
22224;DHT22;11281;52.194;21.006;2022-07-12T15:13:25;18.90;99.90
22224;DHT22;11281;52.194;21.006;2022-07-12T15:17:26;18.90;99.90
22224;DHT22;11281;52.194;21.006;2022-07-12T15:21:28;19.00;99.90
22224;DHT22;11281;52.194;21.006;2022-07-12T15:25:30;18.90;99.90
22224;DHT22;11281;52.194;21.006;2022-07-12T15:29:33;18.80;99.90
22224;DHT22;11281;52.194;21.006;2022-07-12T15:33:34;19.00;99.90
22224;DHT22;11281;52.194;21.006;2022-07-12T15:37:36;19.10;99.90
22224;DHT22;11281;52.194;21.006;2022-07-12T15:41:37;19.10;99.90
22224;DHT22;11281;52.194;21.006;2022-07-12T15:45:39;18.70;99.90
22224;DHT22;11281;52.194;21.006;2022-07-12T15:49:41;18.50;99.90
22224;DHT22;11281;52.194;21.006;2022-07-12T15:53:44;18.40;99.90
22224;DHT22;11281;52.194;21.006;2022-07-12T15:57:45;18.20;99.90
22224;DHT22;11281;52.194;21.006;2022-07-12T16:01:48;18.30;99.90
22224;DHT22;11281;52.194;21.006;2022-07-12T16:05:49;18.20;99.90
22224;DHT22;11281;52.194;21.006;2022-07-12T16:09:51;18.00;99.90
22224;DHT22;11281;52.194;21.006;2022-07-12T16:13:53;17.80;99.90
22224;DHT22;11281;52.194;21.006;2022-07-12T16:17:55;17.80;99.90
22224;DHT22;11281;52.194;21.006;2022-07-12T16:21:57;17.90;99.90
22224;DHT22;11281;52.194;21.006;2022-07-12T16:25:59;17.70;99.90
22224;DHT22;11281;52.194;21.006;2022-07-12T16:30:01;17.80;99.90
22224;DHT22;11281;52.194;21.006;2022-07-12T16:34:02;18.00;99.90
22224;DHT22;11281;52.194;21.006;2022-07-12T16:38:04;18.00;99.90
22224;DHT22;11281;52.194;21.006;2022-07-12T16:42:06;18.10;99.90
22224;DHT22;11281;52.194;21.006;2022-07-12T16:46:08;18.10;99.90
22224;DHT22;11281;52.194;21.006;2022-07-12T16:50:11;18.40;99.90
22224;DHT22;11281;52.194;21.006;2022-07-12T16:54:12;18.40;99.90
22224;DHT22;11281;52.194;21.006;2022-07-12T16:58:14;18.30;99.90
22224;DHT22;11281;52.194;21.006;2022-07-12T17:02:17;18.30;99.90
22224;DHT22;11281;52.194;21.006;2022-07-12T17:06:19;18.40;99.90
22224;DHT22;11281;52.194;21.006;2022-07-12T17:10:21;18.40;99.90
22224;DHT22;11281;52.194;21.006;2022-07-12T17:14:23;18.50;99.90
22224;DHT22;11281;52.194;21.006;2022-07-12T17:18:24;18.60;99.90
22224;DHT22;11281;52.194;21.006;2022-07-12T17:22:26;18.50;99.90
22224;DHT22;11281;52.194;21.006;2022-07-12T17:26:27;18.70;99.90
22224;DHT22;11281;52.194;21.006;2022-07-12T17:30:29;18.90;99.90
22224;DHT22;11281;52.194;21.006;2022-07-12T17:34:30;18.90;99.90
22224;DHT22;11281;52.194;21.006;2022-07-12T17:38:32;18.80;99.90
22224;DHT22;11281;52.194;21.006;2022-07-12T17:42:34;18.70;99.90
22224;DHT22;11281;52.194;21.006;2022-07-12T17:46:36;18.90;99.90
22224;DHT22;11281;52.194;21.006;2022-07-12T17:50:37;18.80;99.90
22224;DHT22;11281;52.194;21.006;2022-07-12T17:54:38;18.80;99.90
22224;DHT22;11281;52.194;21.006;2022-07-12T17:58:40;18.70;99.90
22224;DHT22;11281;52.194;21.006;2022-07-12T18:02:43;18.70;99.90
22224;DHT22;11281;52.194;21.006;2022-07-12T18:06:44;18.60;99.90
22224;DHT22;11281;52.194;21.006;2022-07-12T18:10:47;18.80;99.90
22224;DHT22;11281;52.194;21.006;2022-07-12T18:14:48;18.80;99.90
22224;DHT22;11281;52.194;21.006;2022-07-12T18:18:50;18.60;99.90
22224;DHT22;11281;52.194;21.006;2022-07-12T18:22:52;18.60;99.90
22224;DHT22;11281;52.194;21.006;2022-07-12T18:26:54;18.40;99.90
22224;DHT22;11281;52.194;21.006;2022-07-12T18:30:56;18.30;99.90
22224;DHT22;11281;52.194;21.006;2022-07-12T18:34:58;18.50;99.90
22224;DHT22;11281;52.194;21.006;2022-07-12T18:38:59;18.40;99.90
22224;DHT22;11281;52.194;21.006;2022-07-12T18:43:02;18.60;99.90
22224;DHT22;11281;52.194;21.006;2022-07-12T18:47:04;18.70;99.90
22224;DHT22;11281;52.194;21.006;2022-07-12T18:51:06;18.50;99.90
22224;DHT22;11281;52.194;21.006;2022-07-12T18:55:08;18.40;99.90
22224;DHT22;11281;52.194;21.006;2022-07-12T18:59:09;18.60;99.90
22224;DHT22;11281;52.194;21.006;2022-07-12T19:03:11;18.60;99.90
22224;DHT22;11281;52.194;21.006;2022-07-12T19:07:12;18.70;99.90
22224;DHT22;11281;52.194;21.006;2022-07-12T19:11:14;18.70;99.80
22224;DHT22;11281;52.194;21.006;2022-07-12T19:15:16;18.70;99.30
22224;DHT22;11281;52.194;21.006;2022-07-12T19:19:18;18.60;99.90
22224;DHT22;11281;52.194;21.006;2022-07-12T19:23:19;18.50;99.90
22224;DHT22;11281;52.194;21.006;2022-07-12T19:27:21;18.50;99.90
22224;DHT22;11281;52.194;21.006;2022-07-12T19:31:25;18.60;99.90
22224;DHT22;11281;52.194;21.006;2022-07-12T19:35:28;18.40;99.90
22224;DHT22;11281;52.194;21.006;2022-07-12T19:39:30;18.40;99.90
22224;DHT22;11281;52.194;21.006;2022-07-12T19:43:34;18.30;99.90
22224;DHT22;11281;52.194;21.006;2022-07-12T19:47:35;18.50;99.90
22224;DHT22;11281;52.194;21.006;2022-07-12T19:51:37;18.40;99.90
22224;DHT22;11281;52.194;21.006;2022-07-12T19:55:39;18.40;99.90
22224;DHT22;11281;52.194;21.006;2022-07-12T19:59:44;18.50;99.90
22224;DHT22;11281;52.194;21.006;2022-07-12T20:03:48;18.30;99.90
22224;DHT22;11281;52.194;21.006;2022-07-12T20:07:50;18.30;99.90
22224;DHT22;11281;52.194;21.006;2022-07-12T20:11:52;18.50;99.90
22224;DHT22;11281;52.194;21.006;2022-07-12T20:15:56;18.30;99.90
22224;DHT22;11281;52.194;21.006;2022-07-12T20:20:03;18.10;99.90
22224;DHT22;11281;52.194;21.006;2022-07-12T20:24:06;18.00;99.90
22224;DHT22;11281;52.194;21.006;2022-07-12T20:28:07;18.10;99.90
22224;DHT22;11281;52.194;21.006;2022-07-12T20:32:09;18.10;99.90
22224;DHT22;11281;52.194;21.006;2022-07-12T20:36:11;17.90;99.90
22224;DHT22;11281;52.194;21.006;2022-07-12T20:40:14;17.70;99.90
22224;DHT22;11281;52.194;21.006;2022-07-12T20:44:18;17.40;99.90
22224;DHT22;11281;52.194;21.006;2022-07-12T20:48:20;17.30;99.90
22224;DHT22;11281;52.194;21.006;2022-07-12T20:52:24;17.40;99.90
22224;DHT22;11281;52.194;21.006;2022-07-12T20:56:26;17.50;99.90
22224;DHT22;11281;52.194;21.006;2022-07-12T21:00:27;17.30;99.90
22224;DHT22;11281;52.194;21.006;2022-07-12T21:04:29;17.40;99.90
22224;DHT22;11281;52.194;21.006;2022-07-12T21:08:36;17.60;99.90
22224;DHT22;11281;52.194;21.006;2022-07-12T21:12:37;17.60;99.90
22224;DHT22;11281;52.194;21.006;2022-07-12T21:16:40;17.90;99.90
22224;DHT22;11281;52.194;21.006;2022-07-12T21:20:42;17.90;99.90
22224;DHT22;11281;52.194;21.006;2022-07-12T21:24:44;18.10;99.90
22224;DHT22;11281;52.194;21.006;2022-07-12T21:28:45;18.20;99.90
22224;DHT22;11281;52.194;21.006;2022-07-12T21:32:51;18.10;99.90
22224;DHT22;11281;52.194;21.006;2022-07-12T21:36:54;18.20;99.90
22224;DHT22;11281;52.194;21.006;2022-07-12T21:40:56;18.30;99.90
22224;DHT22;11281;52.194;21.006;2022-07-12T21:44:58;18.30;99.90
22224;DHT22;11281;52.194;21.006;2022-07-12T21:49:01;18.40;99.90
22224;DHT22;11281;52.194;21.006;2022-07-12T21:53:03;18.30;99.90
22224;DHT22;11281;52.194;21.006;2022-07-12T21:57:05;18.30;99.90
22224;DHT22;11281;52.194;21.006;2022-07-12T22:01:07;18.10;99.90
22224;DHT22;11281;52.194;21.006;2022-07-12T22:05:09;18.00;99.90
22224;DHT22;11281;52.194;21.006;2022-07-12T22:09:12;18.00;99.90
22224;DHT22;11281;52.194;21.006;2022-07-12T22:13:13;18.00;99.90
22224;DHT22;11281;52.194;21.006;2022-07-12T22:17:16;18.00;99.90
22224;DHT22;11281;52.194;21.006;2022-07-12T22:21:17;18.10;99.90
22224;DHT22;11281;52.194;21.006;2022-07-12T22:25:19;18.00;99.90
22224;DHT22;11281;52.194;21.006;2022-07-12T22:29:20;18.00;99.90
22224;DHT22;11281;52.194;21.006;2022-07-12T22:33:23;18.00;99.90
22224;DHT22;11281;52.194;21.006;2022-07-12T22:37:24;18.00;99.90
22224;DHT22;11281;52.194;21.006;2022-07-12T22:41:26;18.20;99.90
22224;DHT22;11281;52.194;21.006;2022-07-12T22:45:28;18.20;99.90
22224;DHT22;11281;52.194;21.006;2022-07-12T22:49:29;18.20;99.90
22224;DHT22;11281;52.194;21.006;2022-07-12T22:53:31;18.20;99.90
22224;DHT22;11281;52.194;21.006;2022-07-12T22:57:33;18.00;99.90
22224;DHT22;11281;52.194;21.006;2022-07-12T23:01:37;18.00;99.90
22224;DHT22;11281;52.194;21.006;2022-07-12T23:05:39;18.00;99.90
22224;DHT22;11281;52.194;21.006;2022-07-12T23:09:41;18.10;99.90
22224;DHT22;11281;52.194;21.006;2022-07-12T23:13:43;18.20;99.90
22224;DHT22;11281;52.194;21.006;2022-07-12T23:17:45;18.00;99.90
22224;DHT22;11281;52.194;21.006;2022-07-12T23:21:47;18.00;99.90
22224;DHT22;11281;52.194;21.006;2022-07-12T23:25:48;18.00;99.90
22224;DHT22;11281;52.194;21.006;2022-07-12T23:29:51;17.80;99.90
22224;DHT22;11281;52.194;21.006;2022-07-12T23:33:52;17.80;99.90
22224;DHT22;11281;52.194;21.006;2022-07-12T23:37:54;17.70;99.90
22224;DHT22;11281;52.194;21.006;2022-07-12T23:41:55;17.60;99.90
22224;DHT22;11281;52.194;21.006;2022-07-12T23:45:57;17.50;99.90
22224;DHT22;11281;52.194;21.006;2022-07-12T23:49:58;17.40;99.90
22224;DHT22;11281;52.194;21.006;2022-07-12T23:54:01;17.40;99.90
22224;DHT22;11281;52.194;21.006;2022-07-12T23:58:04;17.40;99.90
